メインページ
METAR-TAF:

METAR-TAF

空港 :

Kirsch Municipal Airport

Sturgis, ミシガン州, アメリカ合衆国

緯度: 41-48-46N, 経度: 085-26-21W, 海抜: 282m

現時点の気象観測

当レポートは29分前の05:55(UTC)に作成
南東の風 8kt
気温 10°C
湿度 53%
気圧 1016 hPa
視程: 16.1km
晴天

METAR: KIRS 040555Z AUTO 13008KT 10SM CLR 10/01 A3001 RMK AO2 T00980013 10160 20075 401870026

時間: 02:24 (06:24 UTC)


TAF: 見つかりません

4,000以上の空港の気象観測と天気予報(METAR報とTAF報)

利用可能な観測所は地図上に黄色い丸と赤い丸で示す。

丸の上にカーソルを重ねると観測所名を参照できる。

次にクリックすると気象観測と天気予報を参照できる。

マップの切り替え:黒色「×」印の緑ボタンをクリックして拡大、「-」印の緑ボタンをクリックして縮小、緑色の三角印をクリックして隣りの地図に切り替え


METAR-TAF: